Time;durP1;ratioP1;P1;durP2;ratioP2;P2;SDS_P1;SDS_P2;PMS_P1;PMS_P2;Temp;Humidity;BMP_temperature;BMP_pressure;BME280_temperature;BME280_humidity;BME280_pressure;Samples;Min_cycle;Max_cycle;Signal;HPM_P1;HPM_P2
2021/11/18 00:02:02;;;;;;;71.63;37.22;;;;;;;0.08;100.00;100810.84;6323156;28;20040;-74
2021/11/18 00:05:03;;;;;;;64.90;34.50;;;;;;;0.05;100.00;100810.88;6323618;28;20036;-74
2021/11/18 00:08:05;;;;;;;68.45;36.05;;;;;;;0.06;100.00;100812.56;6321833;28;20492;-74
2021/11/18 00:11:09;;;;;;;63.38;37.53;;;;;;;0.05;100.00;100816.84;6322840;28;20055;-74
2021/11/18 00:14:10;;;;;;;62.40;35.85;;;;;;;-0.03;100.00;100822.00;6322852;28;20434;-73
2021/11/18 00:17:11;;;;;;;61.90;35.58;;;;;;;-0.05;100.00;100808.34;6321813;28;20055;-73
2021/11/18 00:20:14;;;;;;;65.10;34.75;;;;;;;-0.05;100.00;100799.78;6304558;28;20423;-74
2021/11/18 00:23:17;;;;;;;63.25;35.05;;;;;;;-0.04;100.00;100804.94;6322848;28;20082;-74
2021/11/18 00:26:20;;;;;;;60.10;35.70;;;;;;;0.02;100.00;100805.75;6322992;28;20044;-74
2021/11/18 00:29:22;;;;;;;61.42;34.83;;;;;;;0.00;100.00;100810.91;6321609;28;20074;-74
2021/11/18 00:32:22;;;;;;;64.07;35.67;;;;;;;0.02;100.00;100805.75;6321823;28;20403;-74
2021/11/18 00:35:26;;;;;;;66.30;34.22;;;;;;;-0.01;100.00;100811.75;6321359;28;20095;-73
2021/11/18 00:38:27;;;;;;;62.67;35.17;;;;;;;0.01;100.00;100806.63;6321674;28;20040;-74
2021/11/18 00:41:28;;;;;;;68.75;36.20;;;;;;;0.07;100.00;100812.56;6322412;28;20044;-74
2021/11/18 00:44:29;;;;;;;57.22;33.00;;;;;;;0.10;100.00;100807.41;6321616;28;20044;-74
2021/11/18 00:47:30;;;;;;;61.70;34.17;;;;;;;0.18;100.00;100815.06;6288373;28;20484;-74
2021/11/18 00:50:44;;;;;;;64.20;34.53;;;;;;;0.23;100.00;100808.19;6321744;28;20408;-74
2021/11/18 00:54:00;;;;;;;61.60;35.97;;;;;;;0.26;100.00;100813.28;6325495;28;20048;-75
2021/11/18 00:57:01;;;;;;;65.22;34.22;;;;;;;0.30;100.00;100816.69;6326633;28;20044;-74
2021/11/18 01:00:24;;;;;;;67.47;36.97;;;;;;;0.37;100.00;100806.38;6327562;28;20055;-74
2021/11/18 01:03:26;;;;;;;65.65;35.80;;;;;;;0.48;100.00;100806.31;6326609;28;20419;-70
2021/11/18 01:06:27;;;;;;;65.17;36.00;;;;;;;0.54;100.00;100807.97;6325288;28;20074;-70
2021/11/18 01:09:28;;;;;;;67.20;35.75;;;;;;;0.58;100.00;100801.97;6326093;28;20044;-70
2021/11/18 01:12:28;;;;;;;69.22;37.40;;;;;;;0.67;100.00;100807.00;6325014;28;20044;-69
2021/11/18 01:15:33;;;;;;;64.50;36.03;;;;;;;0.71;100.00;100800.97;6326020;28;20059;-69
2021/11/18 01:18:34;;;;;;;65.68;36.80;;;;;;;0.72;100.00;100806.97;6325885;28;20109;-69
2021/11/18 01:21:36;;;;;;;66.90;35.28;;;;;;;0.79;100.00;100804.34;6325729;28;20040;-70
2021/11/18 01:24:39;;;;;;;74.93;38.23;;;;;;;0.86;100.00;100799.13;6307903;28;20044;-69
2021/11/18 01:27:42;;;;;;;68.30;36.83;;;;;;;0.95;100.00;100801.63;6324710;28;20044;-69
2021/11/18 01:30:43;;;;;;;;;;;;;;;1.01;100.00;100806.72;6326137;28;20040;-70
2021/11/18 01:33:44;;;;;;;68.10;35.25;;;;;;;1.09;100.00;100809.19;6325354;28;19924;-70
2021/11/18 01:36:45;;;;;;;73.90;37.97;;;;;;;1.19;100.00;100813.38;6307442;28;20076;-69
2021/11/18 01:39:46;;;;;;;75.05;40.30;;;;;;;1.24;100.00;100809.06;6325545;28;20036;-69
2021/11/18 01:42:48;;;;;;;76.95;40.33;;;;;;;1.23;100.00;100794.47;6325355;28;20465;-70
2021/11/18 01:45:49;;;;;;;;;;;;;;;1.37;100.00;100804.63;6324536;28;20468;-69
2021/11/18 01:48:52;;;;;;;78.32;42.13;;;;;;;1.35;100.00;100812.34;6325253;28;19938;-70
2021/11/18 01:51:54;;;;;;;;;;;;;;;1.43;100.00;100819.13;6325696;28;20048;-70
2021/11/18 01:54:56;;;;;;;75.28;37.78;;;;;;;1.61;100.00;100818.94;6325097;28;19920;-69
2021/11/18 01:57:56;;;;;;;72.65;35.53;;;;;;;1.74;100.00;100822.19;6325112;28;20195;-69
2021/11/18 02:00:59;;;;;;;72.82;38.42;;;;;;;1.83;100.00;100826.38;6323598;28;20056;-69
2021/11/18 02:04:05;;;;;;;75.32;37.60;;;;;;;1.98;100.00;100821.88;6324165;28;20127;-70
2021/11/18 02:07:08;;;;;;;75.90;38.38;;;;;;;1.98;100.00;100827.03;6324153;28;20119;-70
2021/11/18 02:10:12;;;;;;;75.63;37.75;;;;;;;2.01;100.00;100821.81;6324220;28;20044;-70
2021/11/18 02:13:16;;;;;;;76.28;38.33;;;;;;;2.02;100.00;100822.69;6324515;28;20052;-71
2021/11/18 02:16:17;;;;;;;72.75;38.38;;;;;;;2.03;100.00;100820.97;6324333;28;20495;-70
2021/11/18 02:19:18;;;;;;;73.03;37.22;;;;;;;2.07;100.00;100827.78;6323943;28;20040;-70
2021/11/18 02:22:19;;;;;;;72.38;37.22;;;;;;;2.09;100.00;100826.88;6322530;28;20123;-70
2021/11/18 02:25:26;;;;;;;78.22;39.47;;;;;;;2.09;100.00;100818.31;6323348;28;20059;-70
2021/11/18 02:28:30;;;;;;;66.05;35.67;;;;;;;2.14;100.00;100827.69;6324285;28;20044;-70
2021/11/18 02:31:45;;;;;;;64.22;36.63;;;;;;;2.15;100.00;100823.38;6323982;28;20052;-70
2021/11/18 02:34:52;;;;;;;63.88;36.17;;;;;;;2.20;100.00;100834.44;6323094;28;20067;-69
2021/11/18 02:37:54;;;;;;;70.43;36.60;;;;;;;2.26;100.00;100831.78;6323975;28;20045;-70
2021/11/18 02:40:55;;;;;;;66.95;36.90;;;;;;;2.32;100.00;100823.13;6323846;28;20472;-70
2021/11/18 02:43:57;;;;;;;68.82;37.60;;;;;;;2.37;100.00;100823.94;6322556;28;20044;-69
2021/11/18 02:46:58;;;;;;;67.68;36.65;;;;;;;2.38;100.00;100823.88;6322415;28;20048;-70
2021/11/18 02:49:59;;;;;;;62.33;35.33;;;;;;;2.39;100.00;100829.91;6322612;28;20134;-70
2021/11/18 02:53:00;;;;;;;69.22;34.72;;;;;;;2.39;100.00;100817.03;6322314;28;20060;-70
2021/11/18 02:56:02;;;;;;;66.18;37.17;;;;;;;2.38;100.00;100823.88;6322259;28;20045;-69
2021/11/18 02:59:04;;;;;;;69.22;38.45;;;;;;;2.36;100.00;100817.06;6322250;28;20083;-70
2021/11/18 03:02:06;;;;;;;66.15;37.47;;;;;;;2.32;100.00;100815.41;6323159;28;20044;-69
2021/11/18 03:05:07;;;;;;;66.53;38.53;;;;;;;2.25;100.00;100826.69;6323281;28;20507;-69
2021/11/18 03:08:08;;;;;;;63.70;38.10;;;;;;;2.22;100.00;100823.28;6323207;28;20048;-70
2021/11/18 03:11:10;;;;;;;67.72;37.42;;;;;;;2.12;100.00;100831.13;6323203;28;20097;-69
2021/11/18 03:14:11;;;;;;;79.57;40.58;;;;;;;2.15;100.00;100831.94;6321833;28;20044;-69
2021/11/18 03:17:12;;;;;;;74.70;40.35;;;;;;;2.26;100.00;100833.53;6322017;28;20050;-69
2021/11/18 03:20:16;;;;;;;95.75;50.15;;;;;;;2.34;100.00;100826.53;6322883;28;20051;-70
2021/11/18 03:23:18;;;;;;;89.68;50.13;;;;;;;2.39;100.00;100829.91;6322936;28;20055;-69
2021/11/18 03:26:23;;;;;;;94.10;48.70;;;;;;;2.28;100.00;100818.91;6323055;28;20047;-69
2021/11/18 03:29:26;;;;;;;87.57;45.88;;;;;;;2.25;100.00;100824.94;6322928;28;20044;-69
2021/11/18 03:32:27;;;;;;;87.63;45.03;;;;;;;2.19;100.00;100825.03;6322595;28;20122;-70
2021/11/18 03:35:28;;;;;;;75.22;40.95;;;;;;;2.08;100.00;100825.19;6304479;28;20038;-71
2021/11/18 03:38:31;;;;;;;82.82;42.67;;;;;;;2.08;100.00;100834.63;6321270;28;20044;-70
2021/11/18 03:41:35;;;;;;;90.00;46.42;;;;;;;2.04;100.00;100827.81;6322434;28;20090;-69
2021/11/18 03:44:37;;;;;;;88.45;46.15;;;;;;;2.03;100.00;100823.53;6322608;28;20123;-69
2021/11/18 03:47:37;;;;;;;92.53;48.03;;;;;;;1.99;100.00;100827.88;6321163;28;20123;-69
2021/11/18 03:50:38;;;;;;;90.53;47.60;;;;;;;1.99;100.00;100836.44;6322336;28;20521;-69
2021/11/18 03:53:40;;;;;;;94.68;48.10;;;;;;;2.00;100.00;100817.56;6304031;28;20051;-69
2021/11/18 03:56:42;;;;;;;99.05;51.90;;;;;;;1.99;100.00;100823.56;6321002;28;20089;-69
2021/11/18 03:59:44;;;;;;;103.20;51.85;;;;;;;1.97;100.00;100822.75;6320760;28;20075;-69
2021/11/18 04:02:46;;;;;;;97.82;51.83;;;;;;;1.98;100.00;100833.91;6321912;28;20101;-69
2021/11/18 04:05:47;;;;;;;100.88;50.33;;;;;;;2.03;100.00;100831.25;6320725;28;20044;-69
2021/11/18 04:08:47;;;;;;;95.75;51.50;;;;;;;2.05;100.00;100837.25;6320730;28;20048;-69
2021/11/18 04:11:52;;;;;;;111.85;55.38;;;;;;;2.12;100.00;100834.56;6303772;28;20078;-70
2021/11/18 04:14:52;;;;;;;106.38;53.40;;;;;;;2.21;100.00;100841.31;6321894;28;20047;-69
2021/11/18 04:17:54;;;;;;;104.85;53.38;;;;;;;2.24;100.00;100848.13;6321667;28;20044;-69
2021/11/18 04:20:55;;;;;;;112.85;54.17;;;;;;;2.26;100.00;100843.81;6303232;28;20511;-68
2021/11/18 04:23:55;;;;;;;90.07;48.20;;;;;;;2.32;100.00;100836.84;6320041;28;20048;-70
2021/11/18 04:26:56;;;;;;;101.18;48.50;;;;;;;2.33;100.00;100848.03;6303479;28;20043;-69
2021/11/18 04:29:56;;;;;;;92.57;48.22;;;;;;;2.37;100.00;100847.09;6321309;28;20048;-70
2021/11/18 04:32:57;;;;;;;92.78;48.35;;;;;;;2.32;100.00;100846.31;6303462;28;20033;-70
2021/11/18 04:35:59;;;;;;;102.57;49.05;;;;;;;2.30;100.00;100843.75;6320217;28;20052;-70
2021/11/18 04:39:01;;;;;;;87.35;47.55;;;;;;;2.37;100.00;100844.53;6303179;28;20511;-69
2021/11/18 04:42:03;;;;;;;82.53;45.33;;;;;;;2.37;100.00;100853.09;6320001;28;20051;-69
2021/11/18 04:45:06;;;;;;;92.57;46.15;;;;;;;2.36;100.00;100856.53;6321600;28;20043;-70
2021/11/18 04:48:08;;;;;;;81.93;45.38;;;;;;;2.35;100.00;100847.13;6321391;28;20040;-69
2021/11/18 04:51:12;;;;;;;92.30;44.60;;;;;;;2.48;100.00;100860.66;6320258;28;20052;-70
2021/11/18 04:54:13;;;;;;;87.75;46.13;;;;;;;2.51;100.00;100875.22;6302882;28;20415;-69
2021/11/18 04:57:14;;;;;;;90.85;46.47;;;;;;;2.45;100.00;100875.31;6321296;28;20044;-69
2021/11/18 05:00:30;;;;;;;87.43;46.75;;;;;;;2.42;100.00;100868.47;6321020;28;20078;-69
2021/11/18 05:03:31;;;;;;;78.68;45.28;;;;;;;2.34;100.00;100872.88;6321301;28;20044;-69
2021/11/18 05:06:32;;;;;;;88.10;45.40;;;;;;;2.38;100.00;100883.13;6320033;28;20044;-69
2021/11/18 05:09:32;;;;;;;81.20;46.63;;;;;;;2.36;100.00;100877.13;6320067;28;20052;-69
2021/11/18 05:12:34;;;;;;;91.07;48.75;;;;;;;2.37;100.00;100880.59;6319664;28;20101;-69
2021/11/18 05:15:38;;;;;;;90.40;45.55;;;;;;;2.48;100.00;100890.75;6312523;28;20072;-69
2021/11/18 05:18:38;;;;;;;86.15;45.95;;;;;;;2.45;100.00;100889.06;6319211;28;20086;-69
2021/11/18 05:21:41;;;;;;;86.20;45.13;;;;;;;2.42;100.00;100889.09;6299085;28;20044;-69
2021/11/18 05:24:42;;;;;;;84.28;45.88;;;;;;;2.41;100.00;100890.81;6295623;28;20568;-70
2021/11/18 05:27:43;;;;;;;84.53;45.88;;;;;;;2.36;100.00;100878.88;6311205;28;20097;-69
2021/11/18 05:30:44;;;;;;;82.75;45.42;;;;;;;2.44;100.00;100889.06;6318439;28;20044;-69
2021/11/18 05:33:46;;;;;;;88.70;47.45;;;;;;;2.41;100.00;100880.53;6320595;28;20502;-70
2021/11/18 05:36:47;;;;;;;91.57;47.35;;;;;;;2.36;100.00;100889.19;6320614;28;20059;-69
2021/11/18 05:39:47;;;;;;;81.65;45.30;;;;;;;2.36;100.00;100884.88;6317136;28;20045;-69
2021/11/18 05:42:49;;;;;;;80.65;45.40;;;;;;;2.34;100.00;100891.75;6321207;28;20400;-69
2021/11/18 05:45:51;;;;;;;82.97;44.90;;;;;;;2.32;100.00;100890.09;6304075;28;20044;-69
2021/11/18 05:48:52;;;;;;;80.05;43.38;;;;;;;2.26;100.00;100897.91;6307808;28;20124;-70
2021/11/18 05:51:53;;;;;;;84.95;45.83;;;;;;;2.21;100.00;100903.97;6298894;28;20381;-70
2021/11/18 05:54:55;;;;;;;83.53;45.95;;;;;;;2.14;100.00;100906.63;6298767;28;20072;-70
2021/11/18 05:57:55;;;;;;;86.13;45.83;;;;;;;2.11;100.00;100906.69;6300094;28;20438;-70
2021/11/18 06:00:56;;;;;;;73.85;43.72;;;;;;;2.12;100.00;100905.78;6299548;28;20044;-70
2021/11/18 06:03:59;;;;;;;84.45;44.78;;;;;;;2.12;100.00;100914.41;6298579;28;20129;-70
2021/11/18 06:07:00;;;;;;;;;;;;;;;2.21;100.00;100906.53;6299249;28;20048;-70
2021/11/18 06:10:00;;;;;;;75.10;42.85;;;;;;;2.26;100.00;100913.34;6299793;28;20395;-70
2021/11/18 06:13:03;;;;;;;93.68;48.45;;;;;;;2.29;100.00;100908.19;6299497;28;20040;-70
2021/11/18 06:16:04;;;;;;;80.28;44.00;;;;;;;2.27;100.00;100915.06;6299435;28;20040;-70
2021/11/18 06:19:06;;;;;;;90.47;46.60;;;;;;;2.15;100.00;100914.34;6298294;28;20558;-70
2021/11/18 06:22:07;;;;;;;80.57;45.67;;;;;;;2.16;100.00;100921.22;6307490;28;20500;-71
2021/11/18 06:25:10;;;;;;;80.82;45.80;;;;;;;2.21;100.00;100924.56;6295439;28;20477;-70
2021/11/18 06:28:15;;;;;;;88.68;46.80;;;;;;;2.18;100.00;100931.47;6296992;28;20044;-70
2021/11/18 06:31:16;;;;;;;82.65;45.38;;;;;;;2.28;100.00;100932.22;6297279;28;20063;-69
2021/11/18 06:34:18;;;;;;;79.43;43.28;;;;;;;2.32;100.00;100931.28;6297828;28;20527;-70
2021/11/18 06:37:19;;;;;;;80.25;43.85;;;;;;;2.29;100.00;100931.34;6296790;28;20045;-70
2021/11/18 06:40:20;;;;;;;83.47;44.53;;;;;;;2.34;100.00;100929.56;6296620;28;20041;-70
2021/11/18 06:43:23;;;;;;;81.72;44.88;;;;;;;2.29;100.00;100937.34;6297825;28;20499;-70
2021/11/18 06:46:24;;;;;;;77.78;43.55;;;;;;;2.30;100.00;100936.47;6297799;28;20139;-70
2021/11/18 06:49:24;;;;;;;90.35;46.97;;;;;;;2.28;100.00;100934.78;6296731;28;20480;-70
2021/11/18 06:52:25;;;;;;;92.22;42.95;;;;;;;2.40;100.00;100934.63;6297483;28;20048;-70
2021/11/18 06:55:26;;;;;;;78.38;43.28;;;;;;;2.44;100.00;100943.16;6296361;28;20040;-70
2021/11/18 06:58:27;;;;;;;80.75;42.83;;;;;;;2.46;100.00;100933.69;6297639;28;20045;-70
2021/11/18 07:01:29;;;;;;;88.00;44.90;;;;;;;2.46;100.00;100947.44;6296404;28;20499;-70
2021/11/18 07:04:30;;;;;;;84.65;45.00;;;;;;;2.40;100.00;100955.22;6297402;28;20040;-70
2021/11/18 07:07:30;;;;;;;77.50;44.22;;;;;;;2.41;100.00;100950.06;6296116;28;20037;-70
2021/11/18 07:10:32;;;;;;;86.72;44.30;;;;;;;2.51;100.00;100955.97;6279484;28;20128;-70
2021/11/18 07:13:34;;;;;;;83.53;49.27;;;;;;;2.57;100.00;100965.31;6297126;28;20078;-70
2021/11/18 07:16:35;;;;;;;93.05;50.35;;;;;;;2.65;100.00;100962.63;6295992;28;20125;-70
2021/11/18 07:19:36;;;;;;;90.75;48.03;;;;;;;2.70;100.00;100966.88;6295982;28;20060;-70
2021/11/18 07:22:39;;;;;;;90.10;47.63;;;;;;;2.73;100.00;100965.97;6299994;28;20040;-69
2021/11/18 07:25:40;;;;;;;87.07;49.20;;;;;;;2.75;100.00;100964.22;6307250;28;20071;-70
2021/11/18 07:28:42;;;;;;;90.40;49.03;;;;;;;2.79;100.00;100964.13;6322134;28;20119;-70
2021/11/18 07:31:42;;;;;;;99.33;49.80;;;;;;;2.74;100.00;100965.06;6322127;28;20070;-70
2021/11/18 07:34:44;;;;;;;91.13;47.78;;;;;;;2.77;100.00;100975.34;6310531;28;20093;-71
2021/11/18 07:37:44;;;;;;;95.63;50.92;;;;;;;2.73;100.00;100977.09;6301251;28;20052;-71
2021/11/18 07:40:46;;;;;;;88.20;48.10;;;;;;;2.81;100.00;100988.16;6278845;28;20048;-70
2021/11/18 07:43:47;;;;;;;89.70;49.63;;;;;;;2.76;100.00;100979.66;6299506;28;20408;-71
2021/11/18 07:46:48;;;;;;;93.63;46.13;;;;;;;2.90;100.00;100986.34;6320513;28;20280;-71
2021/11/18 07:49:49;;;;;;;74.13;41.50;;;;;;;2.97;100.00;100988.81;6321695;28;20435;-70
2021/11/18 07:52:50;;;;;;;78.15;43.33;;;;;;;2.89;100.00;100988.06;6321501;28;20071;-71
2021/11/18 07:55:51;;;;;;;72.13;41.17;;;;;;;2.95;100.00;100993.13;6310678;28;20040;-71
2021/11/18 07:58:53;;;;;;;82.95;43.97;;;;;;;2.94;100.00;100999.16;6295268;28;20059;-71
2021/11/18 08:01:54;;;;;;;85.17;44.97;;;;;;;2.94;100.00;100996.56;6295963;28;20072;-71
2021/11/18 08:04:55;;;;;;;83.43;45.97;;;;;;;2.90;100.00;101006.97;6304812;28;20281;-71
2021/11/18 08:07:56;;;;;;;76.80;43.05;;;;;;;2.89;100.00;101003.53;6297735;28;20124;-71
2021/11/18 08:10:57;;;;;;;85.80;45.33;;;;;;;2.85;100.00;101001.03;6303375;28;20119;-71
2021/11/18 08:13:58;;;;;;;89.00;46.08;;;;;;;2.76;100.00;100997.69;6306105;28;20037;-70
2021/11/18 08:17:00;;;;;;;74.68;43.80;;;;;;;2.80;100.00;101001.94;6296414;28;20067;-71
2021/11/18 08:20:01;;;;;;;85.85;48.15;;;;;;;2.79;100.00;101007.97;6278211;28;20037;-71
2021/11/18 08:23:02;;;;;;;100.28;50.22;;;;;;;2.79;100.00;101010.53;6296030;28;20143;-71
2021/11/18 08:26:07;;;;;;;110.93;55.73;;;;;;;2.74;100.00;101017.50;6309276;28;20048;-71
2021/11/18 08:29:10;;;;;;;88.22;48.03;;;;;;;2.77;100.00;101016.59;6320967;28;20277;-71
2021/11/18 08:32:11;;;;;;;89.18;48.33;;;;;;;2.79;100.00;101014.84;6320968;28;20127;-72
2021/11/18 08:35:13;;;;;;;83.15;45.90;;;;;;;2.89;100.00;101019.00;6320920;28;20036;-72
2021/11/18 08:38:17;;;;;;;88.63;42.70;;;;;;;2.87;100.00;101025.06;6320459;28;20056;-75
2021/11/18 08:41:19;;;;;;;84.60;43.80;;;;;;;2.84;100.00;101020.78;6319843;28;20385;-75
2021/11/18 08:44:20;;;;;;;84.60;44.90;;;;;;;2.87;100.00;101031.06;6314473;28;20413;-75
2021/11/18 08:47:22;;;;;;;93.68;45.15;;;;;;;2.92;100.00;101031.84;6293284;28;20076;-71
2021/11/18 08:50:23;;;;;;;86.63;42.90;;;;;;;2.90;100.00;101018.13;6301441;28;20044;-71
2021/11/18 08:53:28;;;;;;;95.07;47.53;;;;;;;2.89;100.00;101028.47;6296935;28;20040;-75
2021/11/18 08:56:29;;;;;;;98.40;51.67;;;;;;;2.87;100.00;101025.91;6298010;28;20405;-71
2021/11/18 08:59:30;;;;;;;115.68;58.58;;;;;;;2.83;100.00;101027.66;6281386;28;20044;-71
2021/11/18 09:02:31;;;;;;;125.68;62.47;;;;;;;2.82;100.00;101028.56;6292500;28;20044;-71
2021/11/18 09:05:32;;;;;;;105.65;51.70;;;;;;;2.88;100.00;101017.28;6319152;28;20090;-71
2021/11/18 09:08:35;;;;;;;117.75;61.88;;;;;;;2.86;100.00;101019.03;6319942;28;20070;-74
2021/11/18 09:11:38;;;;;;;96.18;47.55;;;;;;;2.91;100.00;101021.56;6320840;28;20101;-74
2021/11/18 09:14:39;;;;;;;95.88;49.55;;;;;;;2.84;100.00;101020.78;6321398;28;20036;-74
2021/11/18 09:17:40;;;;;;;87.57;46.63;;;;;;;2.93;100.00;101025.81;6326742;28;20114;-74
2021/11/18 09:20:43;;;;;;;89.15;48.05;;;;;;;2.92;100.00;101024.09;6326646;28;20502;-75
2021/11/18 09:23:52;;;;;;;78.57;45.42;;;;;;;2.88;100.00;101016.44;6326835;28;20036;-74
2021/11/18 09:27:10;;;;;;;86.32;46.03;;;;;;;2.88;100.00;101022.44;6326380;28;20036;-74
2021/11/18 09:30:16;;;;;;;87.18;46.67;;;;;;;2.87;100.00;101020.75;6325237;28;20044;-74
2021/11/18 09:33:17;;;;;;;99.78;48.05;;;;;;;3.08;100.00;101022.16;6326359;28;20093;-74
2021/11/18 09:36:22;;;;;;;85.53;46.47;;;;;;;3.26;100.00;101025.34;6325140;28;20388;-74
2021/11/18 09:39:24;;;;;;;88.28;47.83;;;;;;;3.26;100.00;101023.63;6326322;28;20094;-74
2021/11/18 09:42:53;;;;;;;86.05;47.03;;;;;;;3.26;100.00;101021.03;6325070;28;20036;-74
2021/11/18 09:46:20;;;;;;;92.25;46.72;;;;;;;3.26;100.00;101021.03;6324363;28;20040;-71
2021/11/18 09:49:45;;;;;;;84.10;45.95;;;;;;;3.35;100.00;101014.88;6324583;28;20040;-74
2021/11/18 09:52:49;;;;;;;100.00;51.13;;;;;;;3.42;100.00;101017.34;6323527;28;20047;-70
2021/11/18 09:55:56;;;;;;;103.18;52.92;;;;;;;3.52;100.00;101006.88;6324029;28;20044;-70
2021/11/18 09:59:21;;;;;;;104.05;51.42;;;;;;;3.50;100.00;101018.94;6322989;28;20032;-70
2021/11/18 10:02:43;;;;;;;89.50;48.95;;;;;;;3.54;100.00;101013.72;6324044;28;20036;-70
2021/11/18 10:05:50;;;;;;;87.53;46.75;;;;;;;3.68;100.00;101012.63;6323940;28;20044;-70
2021/11/18 10:09:12;;;;;;;81.15;45.83;;;;;;;3.60;100.00;101021.38;6322628;28;20089;-70
2021/11/18 10:12:31;;;;;;;88.35;46.58;;;;;;;3.64;100.00;101016.97;6322671;28;20044;-70
2021/11/18 10:16:04;;;;;;;85.55;46.78;;;;;;;3.73;100.00;101016.00;6320485;28;20411;-71
2021/11/18 10:19:07;;;;;;;97.78;46.75;;;;;;;3.68;100.00;101022.94;6295839;28;20082;-71
2021/11/18 10:22:12;;;;;;;83.93;47.20;;;;;;;3.73;100.00;101021.16;6298610;28;20040;-71
2021/11/18 10:25:18;;;;;;;86.47;47.60;;;;;;;3.74;100.00;101010.78;6298618;28;20520;-75
2021/11/18 10:28:22;;;;;;;95.75;49.50;;;;;;;3.81;100.00;100998.66;6300275;28;20094;-75
2021/11/18 10:31:45;;;;;;;90.80;49.30;;;;;;;3.89;100.00;101006.22;6311117;28;20110;-75
2021/11/18 10:34:54;;;;;;;101.55;52.22;;;;;;;3.79;100.00;100998.66;6300108;28;20417;-74
2021/11/18 10:38:29;;;;;;;95.32;52.83;;;;;;;3.95;100.00;100988.03;6297035;28;20063;-70
2021/11/18 10:41:32;;;;;;;120.80;61.47;;;;;;;4.10;100.00;100977.44;6299000;28;20082;-70
2021/11/18 10:45:11;;;;;;;126.03;62.33;;;;;;;4.10;100.00;100979.13;6298147;28;20068;-71
2021/11/18 10:48:23;;;;;;;92.80;50.80;;;;;;;4.03;100.00;100976.69;6292170;28;20056;-70
2021/11/18 10:51:32;;;;;;;102.13;53.67;;;;;;;4.01;100.00;100975.00;6298279;28;20068;-71
2021/11/18 10:54:46;;;;;;;91.40;49.75;;;;;;;4.08;100.00;100973.16;6296660;28;20075;-71
2021/11/18 10:58:04;;;;;;;88.75;48.05;;;;;;;4.08;100.00;100986.94;6296573;28;20036;-71
2021/11/18 11:01:25;;;;;;;94.75;51.30;;;;;;;4.01;100.00;100991.34;6305342;28;20074;-71
2021/11/18 11:04:37;;;;;;;94.43;52.50;;;;;;;4.13;100.00;100984.25;6300291;28;20056;-75
2021/11/18 11:07:42;;;;;;;90.13;49.35;;;;;;;4.18;100.00;100983.31;6321639;28;20040;-72
2021/11/18 11:10:47;;;;;;;88.40;50.00;;;;;;;4.18;100.00;100990.16;6297611;28;20044;-75
2021/11/18 11:13:59;;;;;;;94.18;51.13;;;;;;;4.26;100.00;100993.47;6297212;28;20070;-75
2021/11/18 11:17:23;;;;;;;104.13;53.25;;;;;;;4.25;100.00;100994.34;6298895;28;20037;-75
2021/11/18 11:20:36;;;;;;;97.78;51.97;;;;;;;4.09;100.00;101000.69;6292467;28;20056;-75
2021/11/18 11:24:30;;;;;;;94.00;51.28;;;;;;;4.08;100.00;100996.41;6297023;28;20143;-71
2021/11/18 11:27:56;;;;;;;116.28;57.08;;;;;;;3.98;100.00;100998.31;6274775;28;20063;-75
2021/11/18 11:31:31;;;;;;;126.55;63.60;;;;;;;3.98;100.00;100995.75;6297469;28;20036;-75
2021/11/18 11:34:48;;;;;;;128.80;64.63;;;;;;;3.94;100.00;100996.69;6297429;28;20040;-75
2021/11/18 11:38:14;;;;;;;136.38;64.55;;;;;;;3.97;100.00;100987.13;6296476;28;20496;-75
2021/11/18 11:41:42;;;;;;;131.10;65.35;;;;;;;3.98;100.00;100994.00;6298354;28;20480;-76
2021/11/18 11:45:02;;;;;;;111.45;56.78;;;;;;;4.14;100.00;100988.53;6295769;28;20052;-71
2021/11/18 11:48:26;;;;;;;104.88;54.35;;;;;;;4.17;100.00;100999.66;6295516;28;20068;-71
2021/11/18 11:51:45;;;;;;;103.05;55.45;;;;;;;4.19;100.00;100997.91;6297796;28;20566;-71
2021/11/18 11:55:22;;;;;;;98.45;53.63;;;;;;;4.24;100.00;101010.72;6296873;28;20047;-72
2021/11/18 11:58:30;;;;;;;98.80;51.70;;;;;;;4.17;100.00;101007.41;6292037;28;20118;-71
2021/11/18 12:01:47;;;;;;;106.45;51.90;;;;;;;4.19;100.00;101007.38;6296119;28;20036;-71
2021/11/18 12:04:53;;;;;;;112.80;53.78;;;;;;;4.20;100.00;101003.91;6296306;28;20481;-72
2021/11/18 12:08:39;;;;;;;110.05;54.30;;;;;;;4.34;100.00;101009.66;6296233;28;20051;-71
2021/11/18 12:12:04;;;;;;;102.60;53.85;;;;;;;4.33;100.00;101007.97;6278118;28;20477;-75
2021/11/18 12:15:13;;;;;;;146.02;56.20;;;;;;;4.30;100.00;101010.59;6297894;28;20086;-75
2021/11/18 12:18:43;;;;;;;123.45;58.85;;;;;;;4.28;100.00;101001.19;6297062;28;20445;-72
2021/11/18 12:21:44;;;;;;;128.30;57.47;;;;;;;4.33;100.00;101007.13;6292759;28;20056;-71
2021/11/18 12:25:04;;;;;;;128.77;57.95;;;;;;;4.33;100.00;101004.53;6296034;28;20113;-71
2021/11/18 12:28:20;;;;;;;129.10;56.95;;;;;;;4.32;100.00;101008.84;6298092;28;20370;-71
2021/11/18 12:31:26;;;;;;;128.13;55.95;;;;;;;4.30;100.00;101007.19;6295921;28;20048;-71
2021/11/18 12:34:45;;;;;;;130.23;57.35;;;;;;;4.33;100.00;101013.13;6296155;28;20062;-75
2021/11/18 12:37:46;;;;;;;122.07;53.53;;;;;;;4.34;100.00;101009.66;6297298;28;20468;-75
2021/11/18 12:41:21;;;;;;;110.35;51.42;;;;;;;4.44;100.00;100995.66;6296256;28;20033;-75
2021/11/18 12:44:49;;;;;;;122.97;53.40;;;;;;;4.52;100.00;100992.94;6314806;28;20407;-75
2021/11/18 12:47:58;;;;;;;112.85;52.22;;;;;;;4.55;100.00;100992.00;6322252;28;20040;-75
2021/11/18 12:51:02;;;;;;;127.55;52.67;;;;;;;4.59;100.00;100988.47;6326098;28;20044;-75
2021/11/18 12:54:09;;;;;;;116.30;52.70;;;;;;;4.67;100.00;100986.59;6327710;28;20067;-75
2021/11/18 12:57:31;;;;;;;120.00;53.72;;;;;;;4.60;100.00;100980.69;6327576;28;20047;-75
2021/11/18 13:00:48;;;;;;;119.22;51.58;;;;;;;4.78;100.00;100979.47;6326095;28;20048;-75
2021/11/18 13:03:51;;;;;;;119.78;50.92;;;;;;;4.71;100.00;100983.03;6327232;28;20040;-75
2021/11/18 13:06:56;;;;;;;120.25;50.95;;;;;;;4.60;100.00;100993.63;6326289;28;20495;-71
2021/11/18 13:10:43;;;;;;;108.55;49.85;;;;;;;4.75;100.00;100982.09;6324655;28;20044;-75
2021/11/18 13:13:44;;;;;;;110.93;47.97;;;;;;;4.76;100.00;100982.97;6326561;28;20105;-75
2021/11/18 13:16:48;;;;;;;108.45;49.17;;;;;;;4.84;100.00;100983.66;6326878;28;20044;-76
2021/11/18 13:19:50;;;;;;;124.10;49.42;;;;;;;4.93;100.00;100992.94;6325921;28;20068;-75
2021/11/18 13:22:52;;;;;;;;;;;;;;;4.98;100.00;100986.78;6324586;28;20313;-71
2021/11/18 13:25:58;;;;;;;119.43;50.53;;;;;;;4.93;100.00;100988.59;6317471;28;19920;-71
2021/11/18 13:29:16;;;;;;;115.63;51.13;;;;;;;5.00;100.00;100995.34;6319733;28;20072;-74
2021/11/18 13:32:22;;;;;;;129.15;53.00;;;;;;;4.99;100.00;100995.38;6323883;28;20047;-71
2021/11/18 13:35:32;;;;;;;122.03;54.03;;;;;;;4.88;100.00;100992.16;6322302;28;20488;-72
2021/11/18 13:38:58;;;;;;;130.27;54.83;;;;;;;4.82;100.00;100994.03;6299707;28;20075;-72
2021/11/18 13:41:59;;;;;;;127.93;54.35;;;;;;;4.79;100.00;100998.41;6307741;28;20055;-71
2021/11/18 13:45:19;;;;;;;142.95;56.17;;;;;;;4.84;100.00;101014.69;6276096;28;20403;-71
2021/11/18 13:48:20;;;;;;;130.55;53.90;;;;;;;4.80;100.00;101011.31;6316662;28;20043;-74
2021/11/18 13:51:48;;;;;;;137.48;54.38;;;;;;;4.75;100.00;101015.72;6299449;28;20048;-70
2021/11/18 13:54:56;;;;;;;119.47;51.58;;;;;;;4.77;100.00;101019.13;6301244;28;20480;-71
2021/11/18 13:58:10;;;;;;;130.93;52.15;;;;;;;4.81;100.00;101017.31;6298076;28;20506;-71
2021/11/18 14:01:18;;;;;;;124.95;52.03;;;;;;;4.90;100.00;101006.78;6304961;28;20040;-74
2021/11/18 14:04:27;;;;;;;132.55;53.45;;;;;;;4.98;100.00;101004.00;6324156;28;20090;-74
2021/11/18 14:07:43;;;;;;;123.15;52.10;;;;;;;4.96;100.00;101010.94;6323592;28;20036;-72